logo
Search for airport 
image banner adimage banner adimage banner ad
image banner ad

EDKA - Aachen-Merzbrueck

Located in Aachen, Germany

ICAO - EDKA, IATA - AAH

Data provided by Airmate  

General information

Coordinates: N50°49'18" E6°11'3"
Elevation is 623 feet MSL.
Magnetic variation is 2.0000° East
View others Airports in North Rhine-Westphalia

Operational data

Special qualification required
Current time UTC:
Current local time:
Weather at : ETNG - Geilenkirchen ( 18 km )
METAR: ETNG 221350Z 22006KT 9999 FEW042 BKN060 18/10 Q1002
View NOTAMs / SUP AIP / TFR affecting this airport [VIEW]
Communications frequencies: [VIEW]

Runways:

RWY identifierQFULength (ft)Width (ft)SurfaceLDA (ft)
0768°380659ASPH3107
25248°380659ASPH3107

Airport contact information

Address: Aachen Germany

Satellite view of EDKA